createdAt,value
2023-04-28T00:00:39.518Z,160.32
2023-04-28T00:03:08.942Z,171.10
2023-04-28T00:05:40.665Z,165.63
2023-04-28T00:08:10.543Z,193.68
2023-04-28T00:10:40.234Z,218.73
2023-04-28T00:13:10.007Z,259.70
2023-04-28T00:15:39.776Z,281.77
2023-04-28T00:18:09.821Z,281.27
2023-04-28T00:20:39.608Z,260.88
2023-04-28T00:23:09.368Z,257.00
2023-04-28T00:31:14.231Z,247.27
2023-04-28T00:33:44.259Z,238.65
2023-04-28T00:36:14.561Z,209.38
2023-04-28T00:38:44.329Z,234.75
2023-04-28T00:41:14.364Z,226.25
2023-04-28T00:43:48.245Z,212.73
2023-04-28T00:46:23.863Z,211.40
2023-04-28T00:48:53.918Z,213.55
2023-04-28T00:51:23.683Z,191.18
2023-04-28T00:53:53.646Z,191.05
2023-04-28T00:56:23.508Z,191.25
2023-04-28T00:58:53.647Z,179.00
2023-04-28T01:01:23.303Z,173.15
2023-04-28T01:03:54.172Z,174.63
2023-04-28T01:06:25.469Z,171.27
2023-04-28T01:08:55.741Z,173.40
2023-04-28T01:11:25.529Z,165.93
2023-04-28T01:13:55.302Z,157.82
2023-04-28T01:16:25.066Z,156.48
2023-04-28T01:18:54.839Z,154.63
2023-04-28T01:21:31.993Z,159.93
2023-04-28T01:24:02.403Z,158.95
2023-04-28T01:26:32.264Z,157.00
2023-04-28T01:29:02.083Z,148.40
2023-04-28T01:31:32.765Z,152.68
2023-04-28T01:34:02.847Z,163.52
2023-04-28T01:39:02.442Z,149.83
2023-04-28T01:41:32.320Z,145.32
2023-04-28T01:44:02.208Z,149.85
2023-04-28T01:46:32.560Z,179.65
2023-04-28T01:49:02.936Z,154.20
2023-04-28T01:51:32.981Z,165.25
2023-04-28T01:56:31.705Z,172.27
2023-04-28T01:59:01.538Z,188.40
2023-04-28T02:01:31.262Z,187.05
2023-04-28T02:04:01.833Z,176.02
2023-04-28T02:06:31.721Z,171.88
2023-04-28T02:09:01.489Z,169.90
2023-04-28T02:11:31.164Z,165.95
2023-04-28T02:14:00.786Z,159.30
2023-04-28T02:16:31.299Z,164.43
2023-04-28T02:19:01.138Z,163.65
2023-04-28T02:21:30.828Z,169.18
2023-04-28T02:24:00.673Z,170.68
2023-04-28T02:26:30.508Z,166.70
2023-04-28T02:29:01.980Z,166.35
2023-04-28T02:31:33.404Z,171.10
2023-04-28T02:34:03.566Z,169.77
2023-04-28T02:36:34.147Z,167.73
2023-04-28T02:39:04.166Z,160.52
2023-04-28T02:44:03.533Z,161.65
2023-04-28T02:46:33.203Z,160.70
2023-04-28T02:49:03.042Z,149.70
2023-04-28T02:51:33.201Z,153.88
2023-04-28T02:54:03.185Z,147.27
2023-04-28T02:56:33.078Z,146.27
2023-04-28T03:01:32.023Z,151.30
2023-04-28T03:06:33.310Z,133.07
2023-04-28T03:09:03.209Z,121.03
2023-04-28T03:14:02.157Z,119.97
2023-04-28T03:16:31.917Z,118.70
2023-04-28T03:19:01.751Z,113.95
2023-04-28T03:29:00.549Z,103.77
2023-04-28T03:34:01.148Z,106.47
2023-04-28T03:36:31.046Z,105.25
2023-04-28T03:41:29.839Z,101.18
2023-04-28T03:44:00.447Z,99.68
2023-04-28T03:46:30.872Z,108.65
2023-04-28T03:49:00.557Z,102.70
2023-04-28T03:51:30.691Z,101.55
2023-04-28T03:54:00.504Z,104.32
2023-04-28T03:58:59.967Z,104.45
2023-04-28T04:01:29.930Z,108.30
2023-04-28T04:04:00.586Z,99.95
2023-04-28T04:06:30.663Z,101.13
2023-04-28T04:11:29.911Z,107.60
2023-04-28T04:13:59.629Z,108.00
2023-04-28T04:16:30.392Z,111.13
2023-04-28T04:19:00.478Z,107.45
2023-04-28T04:21:30.781Z,110.70
2023-04-28T04:24:00.499Z,101.28
2023-04-28T04:26:30.420Z,98.88
2023-04-28T04:29:00.514Z,100.32
2023-04-28T04:31:30.385Z,69.65
2023-04-28T04:34:00.205Z,65.78
2023-04-28T04:36:30.048Z,55.30
2023-04-28T04:41:29.605Z,51.88
2023-04-28T04:43:59.318Z,54.38
2023-04-28T04:46:29.045Z,50.00
2023-04-28T04:51:28.112Z,48.45
2023-04-28T04:53:58.374Z,48.53
2023-04-28T04:56:28.181Z,48.05
2023-04-28T05:01:26.984Z,47.97
2023-04-28T05:03:57.043Z,50.08
2023-04-28T05:06:27.732Z,46.92
2023-04-28T05:09:05.299Z,47.53
2023-04-28T05:11:34.984Z,50.40
2023-04-28T05:14:04.811Z,50.72
2023-04-28T05:19:03.868Z,49.80
2023-04-28T05:24:03.003Z,42.33
2023-04-28T05:26:32.935Z,44.80
2023-04-28T05:29:02.857Z,45.30
2023-04-28T05:31:32.766Z,46.75
2023-04-28T05:34:02.744Z,46.78
2023-04-28T05:36:33.679Z,49.25
2023-04-28T05:39:03.523Z,45.60
2023-04-28T05:44:02.388Z,48.10
2023-04-28T05:49:02.389Z,52.00
2023-04-28T05:51:32.234Z,48.53
2023-04-28T05:56:31.013Z,50.47
2023-04-28T05:59:02.480Z,48.65
2023-04-28T06:01:33.025Z,49.20
2023-04-28T06:04:03.827Z,49.38
2023-04-28T06:06:35.707Z,50.33
2023-04-28T06:09:05.904Z,50.08
2023-04-28T06:11:35.753Z,50.60
2023-04-28T06:14:05.581Z,48.78
2023-04-28T06:16:35.636Z,50.47
2023-04-28T06:19:06.676Z,49.90
2023-04-28T06:21:36.732Z,51.35
2023-04-28T06:24:08.438Z,50.05
2023-04-28T06:26:38.329Z,52.17
2023-04-28T06:29:08.197Z,52.88
2023-04-28T06:31:38.103Z,47.75
2023-04-28T06:34:08.096Z,50.42
2023-04-28T06:36:38.717Z,47.25
2023-04-28T06:39:09.109Z,46.10
2023-04-28T06:41:39.433Z,48.38
2023-04-28T06:44:10.398Z,45.35
2023-04-28T06:46:40.302Z,46.45
2023-04-28T06:49:10.073Z,48.20
2023-04-28T06:51:40.624Z,46.25
2023-04-28T06:54:10.540Z,45.35
2023-04-28T06:56:40.312Z,43.22
2023-04-28T06:59:10.276Z,46.33
2023-04-28T07:01:40.514Z,45.85
2023-04-28T07:04:12.732Z,49.45
2023-04-28T07:06:43.043Z,42.00
2023-04-28T07:09:13.260Z,48.28
2023-04-28T07:11:43.175Z,48.20
2023-04-28T07:14:13.231Z,51.33
2023-04-28T07:16:43.029Z,49.10
2023-04-28T07:19:12.829Z,49.15
2023-04-28T07:21:42.583Z,47.90
2023-04-28T07:24:12.658Z,48.22
2023-04-28T07:26:42.869Z,48.97
2023-04-28T07:29:15.096Z,55.20
2023-04-28T07:31:44.967Z,54.92
2023-04-28T07:34:15.015Z,54.85
2023-04-28T07:36:45.707Z,51.55
2023-04-28T07:39:15.610Z,51.83
2023-04-28T07:41:45.434Z,51.65
2023-04-28T07:44:15.610Z,51.40
2023-04-28T07:46:45.702Z,53.30
2023-04-28T07:49:15.385Z,52.00
2023-04-28T07:51:45.364Z,51.13
2023-04-28T07:54:15.677Z,50.97
2023-04-28T07:56:45.587Z,50.40
2023-04-28T07:59:15.933Z,48.65
2023-04-28T08:01:45.691Z,50.33
2023-04-28T08:04:19.258Z,48.55
2023-04-28T08:06:50.162Z,53.13
2023-04-28T08:09:20.128Z,52.80
2023-04-28T08:11:49.935Z,51.20
2023-04-28T08:14:19.878Z,52.78
2023-04-28T08:16:50.082Z,54.00
2023-04-28T08:19:20.012Z,50.92
2023-04-28T08:21:49.940Z,54.28
2023-04-28T08:24:19.739Z,53.05
2023-04-28T08:26:49.632Z,51.70
2023-04-28T08:29:19.448Z,54.30
2023-04-28T08:31:49.327Z,54.00
2023-04-28T08:34:19.374Z,57.03
2023-04-28T08:36:49.583Z,55.45
2023-04-28T08:39:19.656Z,54.55
2023-04-28T08:41:49.306Z,55.00
2023-04-28T08:44:19.519Z,52.20
2023-04-28T08:46:49.929Z,51.08
2023-04-28T08:49:20.982Z,49.08
2023-04-28T08:51:59.935Z,50.50
2023-04-28T08:54:33.142Z,51.28
2023-04-28T08:57:03.755Z,53.88
2023-04-28T08:59:35.009Z,53.92
2023-04-28T09:02:05.665Z,49.28
2023-04-28T09:04:38.405Z,50.35
2023-04-28T09:07:13.869Z,55.67
2023-04-28T09:09:44.100Z,54.88
2023-04-28T09:12:13.972Z,52.78
2023-04-28T09:14:44.033Z,52.78
2023-04-28T09:17:18.697Z,51.75
2023-04-28T09:19:50.072Z,52.72
2023-04-28T09:24:58.079Z,54.10
2023-04-28T09:27:31.540Z,51.53
2023-04-28T09:30:01.537Z,50.42
2023-04-28T09:32:32.453Z,50.20
2023-04-28T09:35:03.381Z,48.78
2023-04-28T09:37:34.151Z,52.25
2023-04-28T09:40:11.359Z,50.47
2023-04-28T09:42:45.157Z,48.70
2023-04-28T09:45:16.527Z,46.05
2023-04-28T09:47:48.374Z,43.92
2023-04-28T09:50:19.899Z,45.70
2023-04-28T09:53:00.628Z,46.00
2023-04-28T09:55:31.521Z,44.42
2023-04-28T09:58:05.528Z,42.92
2023-04-28T10:00:37.352Z,45.65
2023-04-28T10:03:07.952Z,46.25
2023-04-28T10:05:40.188Z,44.88
2023-04-28T10:08:10.491Z,43.25
2023-04-28T10:10:40.778Z,45.05
2023-04-28T10:13:11.202Z,42.38
2023-04-28T10:15:42.241Z,39.22
2023-04-28T10:18:12.506Z,40.00
2023-04-28T10:20:43.303Z,38.13
2023-04-28T10:23:31.549Z,41.45
2023-04-28T10:26:02.391Z,40.85
2023-04-28T10:28:32.953Z,39.35
2023-04-28T10:31:15.571Z,39.80
2023-04-28T10:33:46.244Z,38.00
2023-04-28T10:36:37.881Z,37.88
2023-04-28T10:39:14.560Z,38.78
2023-04-28T10:41:44.678Z,40.75
2023-04-28T10:44:32.621Z,38.20
2023-04-28T10:47:06.756Z,41.08
2023-04-28T10:49:54.908Z,41.25
2023-04-28T10:52:39.850Z,41.13
2023-04-28T10:55:28.412Z,41.17
2023-04-28T10:58:16.577Z,38.85
2023-04-28T11:00:47.355Z,43.60
2023-04-28T11:03:37.693Z,45.08
2023-04-28T11:06:31.746Z,47.95
2023-04-28T11:09:05.961Z,44.10
2023-04-28T11:11:41.015Z,44.63
2023-04-28T11:14:23.152Z,45.10
2023-04-28T11:16:54.494Z,45.88
2023-04-28T11:19:26.328Z,47.17
2023-04-28T11:21:57.643Z,46.58
2023-04-28T11:24:29.029Z,48.80
2023-04-28T11:26:59.606Z,48.55
2023-04-28T11:29:37.560Z,55.72
2023-04-28T11:32:08.630Z,59.22
2023-04-28T11:34:39.719Z,55.67
2023-04-28T11:37:11.081Z,60.13
2023-04-28T11:39:41.255Z,66.93
2023-04-28T11:42:15.350Z,68.25
2023-04-28T11:44:45.384Z,70.55
2023-04-28T11:47:15.252Z,70.22
2023-04-28T11:49:46.131Z,71.45
2023-04-28T11:52:15.993Z,70.65
2023-04-28T11:54:45.966Z,76.13
2023-04-28T11:57:22.913Z,74.47
2023-04-28T11:59:53.185Z,71.22
2023-04-28T12:02:32.305Z,72.90
2023-04-28T12:05:10.743Z,74.22
2023-04-28T12:07:50.317Z,73.00
2023-04-28T12:10:21.478Z,74.78
2023-04-28T12:12:53.166Z,73.40
2023-04-28T12:15:26.940Z,75.05
2023-04-28T12:17:56.764Z,74.47
2023-04-28T12:22:55.487Z,73.97
2023-04-28T12:25:25.231Z,74.50
2023-04-28T12:28:04.378Z,73.90
2023-04-28T12:30:35.260Z,75.30
2023-04-28T12:33:06.000Z,76.25
2023-04-28T12:35:36.042Z,77.80
2023-04-28T12:40:37.869Z,74.50
2023-04-28T12:43:07.980Z,80.75
2023-04-28T12:45:38.880Z,77.93
2023-04-28T12:48:09.680Z,76.32
2023-04-28T12:58:08.246Z,93.35
2023-04-28T13:00:38.339Z,90.25
2023-04-28T13:03:09.769Z,84.65
2023-04-28T13:05:39.827Z,82.28
2023-04-28T13:10:39.351Z,82.75
2023-04-28T13:13:09.228Z,81.18
2023-04-28T13:18:08.865Z,83.82
2023-04-28T13:20:38.992Z,82.43
2023-04-28T13:23:09.215Z,81.85
2023-04-28T13:25:39.145Z,80.95
2023-04-28T13:30:38.762Z,81.78
2023-04-28T13:33:08.997Z,81.40
2023-04-28T13:35:39.259Z,81.55
2023-04-28T13:38:10.214Z,86.88
2023-04-28T13:40:40.036Z,85.00
2023-04-28T13:43:09.986Z,86.43
2023-04-28T13:48:10.062Z,86.82
2023-04-28T13:50:41.228Z,82.45
2023-04-28T13:53:11.752Z,85.43
2023-04-28T13:55:41.730Z,85.85
2023-04-28T14:00:41.044Z,103.80
2023-04-28T14:03:14.860Z,94.93
2023-04-28T14:05:49.550Z,90.25
2023-04-28T14:08:20.748Z,85.43
2023-04-28T14:10:52.094Z,85.30
2023-04-28T14:13:23.016Z,82.75
2023-04-28T14:15:59.335Z,86.40
2023-04-28T14:18:30.363Z,87.85
2023-04-28T14:21:00.248Z,97.47
2023-04-28T14:26:01.982Z,97.20
2023-04-28T14:28:31.934Z,97.97
2023-04-28T14:33:37.035Z,99.38
2023-04-28T14:36:07.037Z,104.45
2023-04-28T14:41:08.161Z,99.55
2023-04-28T14:46:08.836Z,97.88
2023-04-28T14:48:39.778Z,96.13
2023-04-28T14:51:11.529Z,97.63
2023-04-28T14:53:41.427Z,98.70
2023-04-28T14:58:47.501Z,97.22
2023-04-28T15:01:18.278Z,101.68
2023-04-28T15:03:48.823Z,103.65
2023-04-28T15:06:19.111Z,108.97
2023-04-28T15:08:49.046Z,102.93
2023-04-28T15:13:48.161Z,106.30
2023-04-28T15:18:47.996Z,100.30
2023-04-28T15:21:17.919Z,98.40
2023-04-28T15:26:17.525Z,99.40
2023-04-28T15:28:47.857Z,95.00
2023-04-28T15:31:18.775Z,97.78
2023-04-28T15:33:49.112Z,99.40
2023-04-28T15:36:21.000Z,99.80
2023-04-28T15:38:51.701Z,95.35
2023-04-28T15:41:22.453Z,91.63
2023-04-28T15:43:52.772Z,93.30
2023-04-28T15:46:24.178Z,93.53
2023-04-28T15:48:54.228Z,95.18
2023-04-28T15:53:53.688Z,99.05
2023-04-28T15:56:24.674Z,97.35
2023-04-28T15:58:55.531Z,96.45
2023-04-28T16:01:26.098Z,95.40
2023-04-28T16:03:56.469Z,96.72
2023-04-28T16:06:28.553Z,94.38
2023-04-28T16:08:58.644Z,96.32
2023-04-28T16:11:28.970Z,100.28
2023-04-28T16:13:59.090Z,103.18
2023-04-28T16:16:32.144Z,102.15
2023-04-28T16:19:02.075Z,100.80
2023-04-28T16:21:33.089Z,101.28
2023-04-28T16:24:04.426Z,100.63
2023-04-28T16:26:35.051Z,99.25
2023-04-28T16:29:05.192Z,99.30
2023-04-28T16:31:35.672Z,100.70
2023-04-28T16:34:07.509Z,96.38
2023-04-28T16:36:37.837Z,99.20
2023-04-28T16:39:07.989Z,102.97
2023-04-28T16:41:38.976Z,99.43
2023-04-28T16:44:09.759Z,100.93
2023-04-28T16:46:42.978Z,102.10
2023-04-28T16:49:14.753Z,102.95
2023-04-28T16:51:57.739Z,99.88
2023-04-28T16:54:31.089Z,100.75
2023-04-28T16:57:02.881Z,106.43
2023-04-28T16:59:33.199Z,103.90
2023-04-28T17:02:05.549Z,100.38
2023-04-28T17:04:36.076Z,102.75
2023-04-28T17:07:07.045Z,103.70
2023-04-28T17:09:37.230Z,99.72
2023-04-28T17:12:07.491Z,102.25
2023-04-28T17:14:40.861Z,101.88
2023-04-28T17:17:11.240Z,104.00
2023-04-28T17:19:44.032Z,104.72
2023-04-28T17:22:14.009Z,103.72
2023-04-28T17:27:16.612Z,108.57
2023-04-28T17:29:50.520Z,104.93
2023-04-28T17:32:20.631Z,104.82
2023-04-28T17:34:50.556Z,109.25
2023-04-28T17:37:21.517Z,109.82
2023-04-28T17:39:54.989Z,107.38
2023-04-28T17:42:24.843Z,111.68
2023-04-28T17:44:55.020Z,109.30
2023-04-28T17:49:57.731Z,109.20
2023-04-28T17:54:59.521Z,109.13
2023-04-28T17:57:30.626Z,109.07
2023-04-28T18:00:00.693Z,106.50
2023-04-28T18:04:59.999Z,101.22
2023-04-28T18:07:30.340Z,102.18
2023-04-28T18:10:01.506Z,98.80
2023-04-28T18:12:31.942Z,97.65
2023-04-28T18:15:02.990Z,101.35
2023-04-28T18:17:32.871Z,98.82
2023-04-28T18:20:02.822Z,100.88
2023-04-28T18:22:32.659Z,98.18
2023-04-28T18:25:03.293Z,101.82
2023-04-28T18:27:33.392Z,101.35
2023-04-28T18:32:32.833Z,108.05
2023-04-28T18:35:03.574Z,103.93
2023-04-28T18:37:33.885Z,104.57
2023-04-28T18:40:05.045Z,103.78
2023-04-28T18:42:35.652Z,105.78
2023-04-28T18:45:08.075Z,105.63
2023-04-28T18:47:38.133Z,107.80
2023-04-28T18:50:08.797Z,107.60
2023-04-28T18:52:38.804Z,109.15
2023-04-28T18:55:09.324Z,102.78
2023-04-28T18:57:39.284Z,99.95
2023-04-28T19:00:12.295Z,98.22
2023-04-28T19:02:42.211Z,99.47
2023-04-28T19:05:12.109Z,97.38
2023-04-28T19:07:42.155Z,102.50
2023-04-28T19:10:12.050Z,103.53
2023-04-28T19:12:41.843Z,101.22
2023-04-28T19:15:12.263Z,99.82
2023-04-28T19:17:42.379Z,102.25
2023-04-28T19:22:45.645Z,100.25
2023-04-28T19:25:16.728Z,102.70
2023-04-28T19:27:46.994Z,100.28
2023-04-28T19:30:18.338Z,100.43
2023-04-28T19:32:48.227Z,102.65
2023-04-28T19:35:18.020Z,97.65
2023-04-28T19:37:48.020Z,98.93
2023-04-28T19:40:19.479Z,102.20
2023-04-28T19:42:49.229Z,100.65
2023-04-28T19:45:19.220Z,100.47
2023-04-28T19:47:48.933Z,104.45
2023-04-28T19:50:20.519Z,104.07
2023-04-28T19:52:50.153Z,99.80
2023-04-28T19:55:21.847Z,97.57
2023-04-28T19:57:51.731Z,101.40
2023-04-28T20:00:23.303Z,101.50
2023-04-28T20:02:53.111Z,97.97
2023-04-28T20:05:23.376Z,96.70
2023-04-28T20:10:25.158Z,104.65
2023-04-28T20:12:56.805Z,104.57
2023-04-28T20:15:26.767Z,100.90
2023-04-28T20:17:56.840Z,102.93
2023-04-28T20:22:55.905Z,102.22
2023-04-28T20:25:25.927Z,101.40
2023-04-28T20:27:55.720Z,102.20
2023-04-28T20:30:25.386Z,101.13
2023-04-28T20:32:55.073Z,100.20
2023-04-28T20:35:24.998Z,103.82
2023-04-28T20:37:55.119Z,100.13
2023-04-28T20:40:24.902Z,105.07
2023-04-28T20:42:54.560Z,103.70
2023-04-28T20:45:24.968Z,101.00
2023-04-28T20:47:56.472Z,99.97
2023-04-28T20:50:26.629Z,101.07
2023-04-28T20:52:56.316Z,100.60
2023-04-28T20:55:26.199Z,102.10
2023-04-28T20:57:55.914Z,99.93
2023-04-28T21:00:25.871Z,99.72
2023-04-28T21:02:55.844Z,97.22
2023-04-28T21:07:55.417Z,102.32
2023-04-28T21:10:25.166Z,101.82
2023-04-28T21:12:54.917Z,100.68
2023-04-28T21:15:25.214Z,99.80
2023-04-28T21:17:56.371Z,102.18
2023-04-28T21:20:26.194Z,106.65
2023-04-28T21:22:56.200Z,100.97
2023-04-28T21:25:27.083Z,97.95
2023-04-28T21:27:57.509Z,101.68
2023-04-28T21:30:29.605Z,103.47
2023-04-28T21:33:00.547Z,102.95
2023-04-28T21:35:30.370Z,106.20
2023-04-28T21:38:02.285Z,105.38
2023-04-28T21:40:31.956Z,105.70
2023-04-28T21:43:01.702Z,105.45
2023-04-28T21:45:31.411Z,104.70
2023-04-28T21:48:01.898Z,106.72
2023-04-28T21:50:31.576Z,108.18
2023-04-28T21:53:02.400Z,108.75
2023-04-28T21:55:32.497Z,106.88
2023-04-28T22:00:32.028Z,108.18
2023-04-28T22:03:02.160Z,105.03
2023-04-28T22:08:03.237Z,102.93
2023-04-28T22:10:33.989Z,106.88
2023-04-28T22:13:04.187Z,105.10
2023-04-28T22:15:33.889Z,109.15
2023-04-28T22:18:03.920Z,107.70
2023-04-28T22:20:34.141Z,111.22
2023-04-28T22:25:33.400Z,112.40
2023-04-28T22:30:35.184Z,112.50
2023-04-28T22:33:05.310Z,111.70
2023-04-28T22:38:08.194Z,114.03
2023-04-28T22:40:37.897Z,118.78
2023-04-28T22:43:07.731Z,114.97
2023-04-28T22:45:37.380Z,118.75
2023-04-28T22:48:07.216Z,113.13
2023-04-28T22:50:37.281Z,121.53
2023-04-28T22:53:06.967Z,117.03
2023-04-28T22:55:36.814Z,118.70
2023-04-28T22:58:06.977Z,111.88
2023-04-28T23:00:37.490Z,112.18
2023-04-28T23:03:07.224Z,113.00
2023-04-28T23:05:40.386Z,112.28
2023-04-28T23:08:10.017Z,113.55
2023-04-28T23:10:39.724Z,109.72
2023-04-28T23:13:09.409Z,111.97
2023-04-28T23:15:39.506Z,112.82
2023-04-28T23:18:09.898Z,112.63
2023-04-28T23:20:39.654Z,114.75
2023-04-28T23:23:09.445Z,112.28
2023-04-28T23:25:39.403Z,110.22
2023-04-28T23:28:09.140Z,115.25
2023-04-28T23:30:38.897Z,112.13
2023-04-28T23:33:09.494Z,112.72
2023-04-28T23:35:39.699Z,110.72
2023-04-28T23:40:38.435Z,112.15
2023-04-28T23:43:08.094Z,116.50
2023-04-28T23:45:37.875Z,112.15
2023-04-28T23:48:08.107Z,112.70
2023-04-28T23:50:37.801Z,114.88
2023-04-28T23:53:07.617Z,119.38
2023-04-28T23:55:37.408Z,115.25
2023-04-28T23:58:07.156Z,122.20
